createdAt,value
2022-09-07T00:01:10.723Z,100761.81
2022-09-07T00:03:37.806Z,100762.56
2022-09-07T00:06:09.997Z,100756.63
2022-09-07T00:08:37.095Z,100759.13
2022-09-07T00:11:07.115Z,100754.31
2022-09-07T00:13:35.898Z,100756.03
2022-09-07T00:16:08.810Z,100749.50
2022-09-07T00:18:35.779Z,100762.94
2022-09-07T00:21:07.997Z,100750.88
2022-09-07T00:23:36.361Z,100761.19
2022-09-07T00:26:08.600Z,100749.78
2022-09-07T00:28:36.133Z,100746.84
2022-09-07T00:31:03.746Z,100750.28
2022-09-07T00:33:31.025Z,100747.00
2022-09-07T00:35:58.630Z,100750.06
2022-09-07T00:38:25.576Z,100746.16
2022-09-07T00:40:53.346Z,100743.09
2022-09-07T00:43:41.553Z,100733.94
2022-09-07T00:46:17.036Z,100745.13
2022-09-07T00:48:43.915Z,100746.78
2022-09-07T00:51:14.039Z,100743.22
2022-09-07T00:53:47.298Z,100736.53
2022-09-07T00:56:14.615Z,100747.19
2022-09-07T00:58:43.147Z,100747.03
2022-09-07T01:01:10.168Z,100736.34
2022-09-07T01:03:41.376Z,100736.56
2022-09-07T01:06:31.259Z,100744.16
2022-09-07T01:09:05.758Z,100741.25
2022-09-07T01:11:34.773Z,100734.28
2022-09-07T01:14:03.601Z,100743.38
2022-09-07T01:16:53.661Z,100735.41
2022-09-07T01:19:26.645Z,100731.00
2022-09-07T01:21:59.711Z,100731.97
2022-09-07T01:24:52.693Z,100738.00
2022-09-07T01:27:28.618Z,100733.34
2022-09-07T01:30:08.693Z,100724.34
2022-09-07T01:32:48.676Z,100718.44
2022-09-07T01:35:45.166Z,100728.31
2022-09-07T01:38:27.377Z,100729.41
2022-09-07T01:41:05.043Z,100728.53
2022-09-07T01:43:57.047Z,100730.50
2022-09-07T01:46:34.298Z,100713.72
2022-09-07T01:49:51.104Z,100720.22
2022-09-07T01:52:35.085Z,100714.81
2022-09-07T01:55:13.803Z,100726.69
2022-09-07T01:57:45.486Z,100726.81
2022-09-07T02:00:15.189Z,100716.25
2022-09-07T02:03:05.331Z,100709.94
2022-09-07T02:05:41.819Z,100710.66
2022-09-07T02:08:26.236Z,100706.62
2022-09-07T02:11:02.006Z,100712.16
2022-09-07T02:13:46.469Z,100712.03
2022-09-07T02:16:17.391Z,100704.31
2022-09-07T02:18:49.621Z,100715.75
2022-09-07T02:21:22.521Z,100706.91
2022-09-07T02:23:53.752Z,100715.50
2022-09-07T02:26:23.028Z,100705.19
2022-09-07T02:28:50.395Z,100703.44
2022-09-07T02:31:17.536Z,100700.97
2022-09-07T02:33:44.484Z,100701.22
2022-09-07T02:36:12.799Z,100699.62
2022-09-07T02:38:39.848Z,100695.09
2022-09-07T02:41:26.680Z,100703.66
2022-09-07T02:43:53.768Z,100690.16
2022-09-07T02:46:32.191Z,100691.03
2022-09-07T02:49:10.147Z,100700.50
2022-09-07T02:51:55.671Z,100698.06
2022-09-07T02:54:32.526Z,100702.09
2022-09-07T02:57:41.489Z,100700.22
2022-09-07T03:00:16.707Z,100699.34
2022-09-07T03:02:58.103Z,100694.16
2022-09-07T03:05:29.403Z,100685.72
2022-09-07T03:08:04.357Z,100687.94
2022-09-07T03:10:31.891Z,100687.06
2022-09-07T03:12:58.804Z,100688.66
2022-09-07T03:15:27.406Z,100687.81
2022-09-07T03:17:54.353Z,100686.34
2022-09-07T03:20:22.669Z,100690.47
2022-09-07T03:22:52.221Z,100685.03
2022-09-07T03:25:19.351Z,100683.53
2022-09-07T03:27:46.289Z,100697.41
2022-09-07T03:30:15.304Z,100697.25
2022-09-07T03:32:42.547Z,100685.13
2022-09-07T03:35:14.540Z,100690.25
2022-09-07T03:37:41.678Z,100687.69
2022-09-07T03:40:12.182Z,100697.03
2022-09-07T03:42:39.819Z,100698.25
2022-09-07T03:45:07.755Z,100705.16
2022-09-07T03:47:35.694Z,100695.59
2022-09-07T03:50:02.616Z,100703.03
2022-09-07T03:52:29.805Z,100696.88
2022-09-07T03:54:56.630Z,100703.88
2022-09-07T03:57:23.481Z,100695.13
2022-09-07T03:59:50.628Z,100700.47
2022-09-07T04:02:17.747Z,100704.34
2022-09-07T04:04:46.136Z,100708.56
2022-09-07T04:07:14.157Z,100715.19
2022-09-07T04:09:41.494Z,100707.56
2022-09-07T04:12:08.648Z,100712.59
2022-09-07T04:14:35.592Z,100719.75
2022-09-07T04:17:02.654Z,100704.13
2022-09-07T04:19:30.017Z,100717.66
2022-09-07T04:21:56.840Z,100723.62
2022-09-07T04:24:23.775Z,100714.78
2022-09-07T04:26:50.730Z,100715.44
2022-09-07T04:29:17.665Z,100724.66
2022-09-07T04:31:44.583Z,100722.63
2022-09-07T04:34:12.169Z,100730.25
2022-09-07T04:36:39.036Z,100736.94
2022-09-07T04:39:06.238Z,100723.59
2022-09-07T04:41:34.313Z,100731.22
2022-09-07T04:44:02.658Z,100732.44
2022-09-07T04:46:33.857Z,100730.88
2022-09-07T04:49:04.173Z,100709.75
2022-09-07T04:51:32.431Z,100729.81
2022-09-07T04:54:01.764Z,100732.31
2022-09-07T04:56:28.842Z,100730.16
2022-09-07T04:58:55.841Z,100728.81
2022-09-07T05:01:24.439Z,100734.22
2022-09-07T05:03:51.508Z,100729.28
2022-09-07T05:06:19.785Z,100732.03
2022-09-07T05:08:48.953Z,100710.09
2022-09-07T05:11:16.594Z,100716.72
2022-09-07T05:13:43.517Z,100713.28
2022-09-07T05:16:13.503Z,100709.47
2022-09-07T05:18:40.921Z,100689.19
2022-09-07T05:21:29.196Z,100687.53
2022-09-07T05:23:57.583Z,100706.00
2022-09-07T05:26:27.666Z,100704.13
2022-09-07T05:31:42.130Z,100703.66
2022-09-07T05:36:56.545Z,100714.41
2022-09-07T05:39:23.936Z,100715.78
2022-09-07T05:41:50.909Z,100716.69
2022-09-07T05:47:05.133Z,100728.41
2022-09-07T05:49:32.512Z,100724.28
2022-09-07T05:51:59.487Z,100716.69
2022-09-07T05:54:26.652Z,100715.63
2022-09-07T05:56:53.524Z,100721.69
2022-09-07T05:59:20.575Z,100728.59
2022-09-07T06:01:47.636Z,100729.91
2022-09-07T06:04:14.697Z,100725.34
2022-09-07T06:06:41.659Z,100725.09
2022-09-07T06:09:11.423Z,100724.31
2022-09-07T06:11:38.946Z,100719.09
2022-09-07T06:14:05.839Z,100718.87
2022-09-07T06:16:35.005Z,100704.53
2022-09-07T06:19:06.881Z,100707.63
2022-09-07T06:21:38.061Z,100700.19
2022-09-07T06:24:05.952Z,100694.63
2022-09-07T06:26:32.954Z,100686.53
2022-09-07T06:28:59.914Z,100673.66
2022-09-07T06:31:28.555Z,100666.31
2022-09-07T06:33:56.158Z,100653.47
2022-09-07T06:36:27.848Z,100654.84
2022-09-07T06:38:56.370Z,100646.69
2022-09-07T06:44:12.663Z,100636.97
2022-09-07T06:49:26.878Z,100645.25
2022-09-07T06:51:53.745Z,100658.66
2022-09-07T06:57:09.407Z,100611.03
2022-09-07T06:59:37.236Z,100641.00
2022-09-07T07:02:05.215Z,100637.41
2022-09-07T07:04:35.119Z,100616.34
2022-09-07T07:07:04.914Z,100628.38
2022-09-07T07:09:31.769Z,100614.91
2022-09-07T07:11:58.723Z,100622.84
2022-09-07T07:14:25.634Z,100621.41
2022-09-07T07:16:52.590Z,100616.69
2022-09-07T07:19:19.536Z,100612.91
2022-09-07T07:22:10.768Z,100611.19
2022-09-07T07:24:33.247Z,100583.03
2022-09-07T07:27:00.386Z,100599.63
2022-09-07T07:29:28.211Z,100607.59
2022-09-07T07:31:55.822Z,100610.28
2022-09-07T07:34:22.796Z,100612.78
2022-09-07T07:36:49.726Z,100613.50
2022-09-07T07:42:05.984Z,100610.69
2022-09-07T07:44:33.257Z,100608.16
2022-09-07T07:47:00.439Z,100598.19
2022-09-07T07:49:27.338Z,100604.84
2022-09-07T07:54:42.881Z,100621.81
2022-09-07T07:57:10.459Z,100606.81
2022-09-07T07:59:38.057Z,100602.47
2022-09-07T08:02:14.149Z,100601.72
2022-09-07T08:04:41.289Z,100599.31
2022-09-07T08:07:12.671Z,100593.41
2022-09-07T08:09:45.690Z,100585.03
2022-09-07T08:12:16.693Z,100575.72
2022-09-07T08:14:43.888Z,100588.22
2022-09-07T08:17:12.230Z,100584.41
2022-09-07T08:19:39.353Z,100569.81
2022-09-07T08:22:06.833Z,100578.00
2022-09-07T08:24:33.774Z,100577.66
2022-09-07T08:27:00.896Z,100565.50
2022-09-07T08:29:31.309Z,100576.56
2022-09-07T08:32:00.816Z,100588.78
2022-09-07T08:34:27.677Z,100561.72
2022-09-07T08:36:54.930Z,100563.88
2022-09-07T08:39:21.854Z,100566.75
2022-09-07T08:42:08.983Z,100556.25
2022-09-07T08:45:05.729Z,100556.53
2022-09-07T08:47:35.165Z,100581.28
2022-09-07T08:50:05.366Z,100581.16
2022-09-07T08:52:51.107Z,100550.66
2022-09-07T08:55:33.981Z,100569.44
2022-09-07T08:58:27.089Z,100561.06
2022-09-07T09:06:49.773Z,100600.59
2022-09-07T09:09:35.579Z,100587.44
2022-09-07T09:12:29.273Z,100579.78
2022-09-07T09:15:21.241Z,100559.47
2022-09-07T09:17:52.093Z,100537.06
2022-09-07T09:20:31.890Z,100542.59
2022-09-07T09:23:02.706Z,100542.13
2022-09-07T09:25:33.945Z,100549.50
2022-09-07T09:28:01.086Z,100554.31
2022-09-07T09:30:29.113Z,100545.06
2022-09-07T09:33:17.110Z,100535.44
2022-09-07T09:35:45.845Z,100570.53
2022-09-07T09:38:36.351Z,100548.47
2022-09-07T09:41:08.006Z,100530.09
2022-09-07T09:43:53.691Z,100538.44
2022-09-07T09:46:23.524Z,100544.38
2022-09-07T09:48:55.562Z,100564.75
2022-09-07T09:54:33.062Z,100547.28
2022-09-07T09:57:00.344Z,100546.91
2022-09-07T10:05:38.618Z,100525.69
2022-09-07T10:08:22.442Z,100514.47
2022-09-07T10:10:56.551Z,100486.78
2022-09-07T10:13:27.774Z,100507.13
2022-09-07T10:15:56.886Z,100516.56
2022-09-07T10:18:32.874Z,100509.38
2022-09-07T10:21:14.718Z,100526.97
2022-09-07T10:23:41.718Z,100515.50
2022-09-07T10:26:42.023Z,100511.44
2022-09-07T10:29:15.375Z,100520.91
2022-09-07T10:31:54.285Z,100501.75
2022-09-07T10:34:38.954Z,100508.69
2022-09-07T10:37:08.834Z,100491.72
2022-09-07T10:39:43.390Z,100497.91
2022-09-07T10:42:33.951Z,100496.66
2022-09-07T10:45:24.848Z,100504.91
2022-09-07T10:48:47.858Z,100484.44
2022-09-07T10:51:26.478Z,100492.78
2022-09-07T10:54:31.485Z,100475.97
2022-09-07T10:57:34.312Z,100475.16
2022-09-07T11:00:13.006Z,100492.19
2022-09-07T11:03:24.880Z,100499.00
2022-09-07T11:05:51.580Z,100478.59
2022-09-07T11:09:15.191Z,100462.12
2022-09-07T11:14:28.513Z,100460.13
2022-09-07T11:17:01.837Z,100487.13
2022-09-07T11:19:35.882Z,100457.37
2022-09-07T11:22:10.585Z,100480.75
2022-09-07T11:25:33.286Z,100462.00
2022-09-07T11:28:12.542Z,100456.50
2022-09-07T11:30:46.914Z,100450.66
2022-09-07T11:33:26.794Z,100441.56
2022-09-07T11:36:01.003Z,100443.75
2022-09-07T11:38:48.996Z,100444.75
2022-09-07T11:41:25.315Z,100433.78
2022-09-07T11:44:03.360Z,100433.25
2022-09-07T11:46:42.255Z,100437.19
2022-09-07T11:49:25.984Z,100432.44
2022-09-07T11:51:57.005Z,100446.63
2022-09-07T11:54:34.380Z,100430.78
2022-09-07T11:57:33.597Z,100404.53
2022-09-07T12:00:10.996Z,100428.44
2022-09-07T12:02:59.800Z,100422.94
2022-09-07T12:06:09.378Z,100407.94
2022-09-07T12:09:01.675Z,100419.59
2022-09-07T12:11:31.295Z,100429.16
2022-09-07T12:14:13.040Z,100412.41
2022-09-07T12:17:04.114Z,100402.59
2022-09-07T12:19:31.093Z,100401.28
2022-09-07T12:21:59.729Z,100407.75
2022-09-07T12:24:48.937Z,100401.44
2022-09-07T12:27:21.931Z,100388.56
2022-09-07T12:29:58.316Z,100409.38
2022-09-07T12:32:54.932Z,100391.22
2022-09-07T12:35:31.688Z,100404.31
2022-09-07T12:37:59.713Z,100385.72
2022-09-07T12:40:29.481Z,100391.53
2022-09-07T12:43:14.734Z,100400.50
2022-09-07T12:45:44.274Z,100394.94
2022-09-07T12:48:16.828Z,100389.09
2022-09-07T12:50:59.068Z,100393.66
2022-09-07T12:53:25.881Z,100383.66
2022-09-07T12:56:30.025Z,100384.75
2022-09-07T12:59:27.987Z,100375.31
2022-09-07T13:02:32.578Z,100367.22
2022-09-07T13:05:37.161Z,100364.31
2022-09-07T13:08:10.250Z,100360.78
2022-09-07T13:10:38.466Z,100353.47
2022-09-07T13:13:14.594Z,100355.56
2022-09-07T13:16:13.870Z,100351.12
2022-09-07T13:18:43.755Z,100359.19
2022-09-07T13:21:11.968Z,100362.84
2022-09-07T13:23:49.415Z,100355.09
2022-09-07T13:26:53.717Z,100351.81
2022-09-07T13:29:24.580Z,100335.09
2022-09-07T13:32:03.327Z,100325.13
2022-09-07T13:34:33.654Z,100334.56
2022-09-07T13:37:02.189Z,100336.84
2022-09-07T13:39:32.950Z,100340.16
2022-09-07T13:42:00.511Z,100348.13
2022-09-07T13:44:32.853Z,100344.28
2022-09-07T13:47:17.514Z,100337.91
2022-09-07T13:49:59.058Z,100341.63
2022-09-07T13:52:37.102Z,100332.69
2022-09-07T13:55:10.091Z,100320.94
2022-09-07T13:57:50.751Z,100320.31
2022-09-07T14:00:18.350Z,100314.31
2022-09-07T14:02:56.331Z,100309.78
2022-09-07T14:05:23.850Z,100307.91
2022-09-07T14:07:50.864Z,100306.22
2022-09-07T14:10:23.705Z,100319.66
2022-09-07T14:13:08.012Z,100306.94
2022-09-07T14:15:46.395Z,100294.31
2022-09-07T14:18:25.803Z,100294.81
2022-09-07T14:20:53.734Z,100309.44
2022-09-07T14:23:22.337Z,100299.38
2022-09-07T14:26:21.529Z,100301.06
2022-09-07T14:28:53.422Z,100293.44
2022-09-07T14:31:22.030Z,100300.66
2022-09-07T14:33:55.600Z,100293.63
2022-09-07T14:36:44.325Z,100289.13
2022-09-07T14:39:13.588Z,100301.87
2022-09-07T14:41:41.989Z,100297.87
2022-09-07T14:44:30.071Z,100305.06
2022-09-07T14:46:59.194Z,100302.97
2022-09-07T14:49:26.366Z,100297.31
2022-09-07T14:51:54.391Z,100303.25
2022-09-07T14:54:34.007Z,100306.28
2022-09-07T14:57:27.512Z,100305.69
2022-09-07T14:59:57.192Z,100314.00
2022-09-07T15:02:28.477Z,100303.84
2022-09-07T15:05:18.542Z,100299.38
2022-09-07T15:07:50.704Z,100296.62
2022-09-07T15:10:20.535Z,100305.59
2022-09-07T15:12:55.933Z,100312.25
2022-09-07T15:15:40.262Z,100315.44
2022-09-07T15:18:45.463Z,100336.88
2022-09-07T15:21:12.308Z,100336.91
2022-09-07T15:23:39.164Z,100322.94
2022-09-07T15:26:06.406Z,100336.31
2022-09-07T15:34:12.483Z,100347.31
2022-09-07T15:36:41.343Z,100355.78
2022-09-07T15:39:21.074Z,100356.38
2022-09-07T15:41:48.177Z,100353.84
2022-09-07T15:44:15.703Z,100360.81
2022-09-07T15:47:43.255Z,100366.53
2022-09-07T15:49:30.726Z,100381.78
2022-09-07T15:52:05.380Z,100376.03
2022-09-07T15:54:35.274Z,100373.09
2022-09-07T15:59:50.750Z,100383.41
2022-09-07T16:05:06.400Z,100388.06
2022-09-07T16:10:20.550Z,100391.19
2022-09-07T16:13:10.075Z,100395.59
2022-09-07T16:15:35.067Z,100399.66
2022-09-07T16:18:02.410Z,100394.50
2022-09-07T16:20:31.988Z,100396.44
2022-09-07T16:23:15.863Z,100401.47
2022-09-07T16:25:55.421Z,100399.50
2022-09-07T16:28:22.640Z,100402.87
2022-09-07T16:30:49.550Z,100402.87
2022-09-07T16:33:16.441Z,100392.87
2022-09-07T16:35:43.349Z,100394.72
2022-09-07T16:40:58.109Z,100397.78
2022-09-07T16:43:25.378Z,100396.44
2022-09-07T16:46:06.461Z,100399.47
2022-09-07T16:48:35.295Z,100406.97
2022-09-07T16:51:03.542Z,100411.50
2022-09-07T16:53:32.774Z,100406.16
2022-09-07T16:56:04.946Z,100404.59
2022-09-07T16:58:36.152Z,100398.56
2022-09-07T17:01:05.475Z,100408.38
2022-09-07T17:03:32.453Z,100405.47
2022-09-07T17:06:02.951Z,100396.50
2022-09-07T17:08:29.924Z,100409.47
2022-09-07T17:11:04.917Z,100404.00
2022-09-07T17:13:32.648Z,100404.31
2022-09-07T17:16:03.838Z,100393.66
2022-09-07T17:21:19.756Z,100396.50
2022-09-07T17:23:54.425Z,100400.72
2022-09-07T17:26:23.644Z,100414.59
2022-09-07T17:28:55.494Z,100418.47
2022-09-07T17:34:13.325Z,100415.22
2022-09-07T17:36:40.354Z,100406.69
2022-09-07T17:39:16.302Z,100426.91
2022-09-07T17:41:44.193Z,100429.22
2022-09-07T17:44:11.500Z,100433.87
2022-09-07T17:46:38.469Z,100438.38
2022-09-07T17:49:07.974Z,100445.12
2022-09-07T17:51:36.178Z,100448.09
2022-09-07T17:54:12.720Z,100447.13
2022-09-07T17:56:40.870Z,100450.94
2022-09-07T18:01:55.350Z,100454.63
2022-09-07T18:04:22.838Z,100479.28
2022-09-07T18:06:49.932Z,100483.31
2022-09-07T18:09:16.938Z,100484.34
2022-09-07T18:11:45.742Z,100479.78
2022-09-07T18:14:14.918Z,100487.59
2022-09-07T18:16:43.933Z,100482.31
2022-09-07T18:19:11.929Z,100477.72
2022-09-07T18:21:40.933Z,100482.16
2022-09-07T18:24:13.870Z,100488.09
2022-09-07T18:26:41.242Z,100496.28
2022-09-07T18:29:19.219Z,100497.16
2022-09-07T18:31:53.898Z,100491.34
2022-09-07T18:34:20.982Z,100493.03
2022-09-07T18:36:48.002Z,100493.22
2022-09-07T18:39:15.317Z,100492.88
2022-09-07T18:41:42.325Z,100489.13
2022-09-07T18:46:56.259Z,100486.41
2022-09-07T18:49:23.551Z,100482.44
2022-09-07T18:54:38.913Z,100471.69
2022-09-07T18:57:07.009Z,100477.16
2022-09-07T18:59:34.192Z,100467.94
2022-09-07T19:02:04.379Z,100480.22
2022-09-07T19:07:27.371Z,100477.28
2022-09-07T19:09:56.359Z,100493.34
2022-09-07T19:12:24.371Z,100489.59
2022-09-07T19:14:51.661Z,100489.13
2022-09-07T19:17:19.313Z,100488.22
2022-09-07T19:19:46.415Z,100508.09
2022-09-07T19:22:14.030Z,100502.31
2022-09-07T19:24:40.973Z,100485.13
2022-09-07T19:27:07.835Z,100478.19
2022-09-07T19:29:34.719Z,100473.47
2022-09-07T19:32:04.764Z,100481.53
2022-09-07T19:34:32.693Z,100473.00
2022-09-07T19:36:59.697Z,100475.59
2022-09-07T19:39:26.977Z,100470.47
2022-09-07T19:41:54.130Z,100475.38
2022-09-07T19:44:20.985Z,100478.00
2022-09-07T19:46:47.870Z,100465.78
2022-09-07T19:49:15.008Z,100468.19
2022-09-07T19:51:42.424Z,100445.84
2022-09-07T19:54:10.541Z,100456.09
2022-09-07T19:56:39.267Z,100451.66
2022-09-07T19:59:06.261Z,100448.62
2022-09-07T20:01:33.976Z,100438.00
2022-09-07T20:04:06.999Z,100449.59
2022-09-07T20:06:34.983Z,100453.97
2022-09-07T20:09:01.971Z,100458.25
2022-09-07T20:11:29.153Z,100445.00
2022-09-07T20:13:57.152Z,100438.50
2022-09-07T20:16:24.708Z,100449.75
2022-09-07T20:18:51.822Z,100451.97
2022-09-07T20:21:23.503Z,100440.28
2022-09-07T20:23:51.072Z,100455.62
2022-09-07T20:26:20.029Z,100454.84
2022-09-07T20:29:01.948Z,100443.97
2022-09-07T20:31:39.181Z,100434.50
2022-09-07T20:34:06.344Z,100448.66
2022-09-07T20:36:33.223Z,100437.81
2022-09-07T20:39:00.033Z,100442.72
2022-09-07T20:41:29.145Z,100446.94
2022-09-07T20:43:58.363Z,100453.25
2022-09-07T20:46:25.985Z,100455.59
2022-09-07T20:48:52.965Z,100464.91
2022-09-07T20:51:22.084Z,100468.91
2022-09-07T20:53:49.249Z,100478.25
2022-09-07T20:56:18.523Z,100476.53
2022-09-07T20:58:46.317Z,100474.59
2022-09-07T21:01:16.573Z,100471.22
2022-09-07T21:03:49.400Z,100462.75
2022-09-07T21:06:17.364Z,100451.69
2022-09-07T21:08:45.116Z,100450.91
2022-09-07T21:11:20.554Z,100460.41
2022-09-07T21:13:47.740Z,100462.75
2022-09-07T21:16:16.294Z,100452.50
2022-09-07T21:18:44.209Z,100449.44
2022-09-07T21:21:20.364Z,100453.56
2022-09-07T21:23:48.111Z,100459.84
2022-09-07T21:26:15.403Z,100454.56
2022-09-07T21:28:42.283Z,100450.84
2022-09-07T21:31:09.331Z,100452.56
2022-09-07T21:33:37.680Z,100451.22
2022-09-07T21:36:10.273Z,100458.38
2022-09-07T21:38:38.689Z,100457.13
2022-09-07T21:41:10.630Z,100457.09
2022-09-07T21:43:38.072Z,100465.09
2022-09-07T21:46:17.214Z,100467.06
2022-09-07T21:48:45.521Z,100472.31
2022-09-07T21:51:15.730Z,100471.72
2022-09-07T21:53:42.966Z,100459.91
2022-09-07T21:56:11.992Z,100465.38
2022-09-07T21:58:39.958Z,100456.19
2022-09-07T22:01:17.984Z,100457.37
2022-09-07T22:03:54.092Z,100454.81
2022-09-07T22:06:21.474Z,100454.72
2022-09-07T22:08:48.243Z,100458.47
2022-09-07T22:11:17.940Z,100456.00
2022-09-07T22:13:45.253Z,100453.56
2022-09-07T22:16:12.591Z,100454.88
2022-09-07T22:18:40.224Z,100454.41
2022-09-07T22:21:10.238Z,100457.53
2022-09-07T22:23:39.506Z,100451.78
2022-09-07T22:26:07.264Z,100444.47
2022-09-07T22:28:34.705Z,100451.25
2022-09-07T22:31:28.325Z,100448.34
2022-09-07T22:33:56.791Z,100449.12
2022-09-07T22:36:34.015Z,100442.84
2022-09-07T22:39:04.200Z,100442.38
2022-09-07T22:41:34.112Z,100439.44
2022-09-07T22:44:01.110Z,100447.41
2022-09-07T22:46:30.238Z,100444.41
2022-09-07T22:48:58.573Z,100439.97
2022-09-07T22:51:26.821Z,100438.09
2022-09-07T22:53:54.663Z,100436.53
2022-09-07T22:56:23.941Z,100428.06
2022-09-07T22:58:54.008Z,100423.78
2022-09-07T23:01:21.933Z,100426.69
2022-09-07T23:03:49.429Z,100425.53
2022-09-07T23:06:35.633Z,100421.25
2022-09-07T23:09:06.769Z,100420.94
2022-09-07T23:11:33.996Z,100418.12
2022-09-07T23:14:02.870Z,100421.16
2022-09-07T23:16:30.042Z,100418.88
2022-09-07T23:19:00.421Z,100413.06
2022-09-07T23:21:27.895Z,100409.87
2022-09-07T23:23:56.916Z,100396.75
2022-09-07T23:26:25.085Z,100395.22
2022-09-07T23:28:53.357Z,100400.34
2022-09-07T23:31:21.041Z,100400.41
2022-09-07T23:33:48.133Z,100403.69
2022-09-07T23:36:15.520Z,100397.25
2022-09-07T23:38:42.438Z,100401.66
2022-09-07T23:41:09.222Z,100401.53
2022-09-07T23:43:36.049Z,100400.97
2022-09-07T23:46:02.961Z,100405.25
2022-09-07T23:48:29.822Z,100405.25
2022-09-07T23:50:56.718Z,100405.53
2022-09-07T23:53:24.146Z,100403.37
2022-09-07T23:55:52.558Z,100410.00
2022-09-07T23:58:21.828Z,100405.00
